sensor_id;sensor_type;location;lat;lon;timestamp;temperature;humidity
40538;DHT22;27925;41.874;12.526;2023-12-20T00:01:47;9.60;71.40
40538;DHT22;27925;41.874;12.526;2023-12-20T00:04:13;9.60;71.30
40538;DHT22;27925;41.874;12.526;2023-12-20T00:06:39;9.70;71.50
40538;DHT22;27925;41.874;12.526;2023-12-20T00:09:04;9.70;71.30
40538;DHT22;27925;41.874;12.526;2023-12-20T00:11:30;9.70;71.50
40538;DHT22;27925;41.874;12.526;2023-12-20T00:13:56;9.70;71.60
40538;DHT22;27925;41.874;12.526;2023-12-20T00:16:21;9.60;71.70
40538;DHT22;27925;41.874;12.526;2023-12-20T00:18:47;9.60;71.60
40538;DHT22;27925;41.874;12.526;2023-12-20T00:21:13;9.50;72.00
40538;DHT22;27925;41.874;12.526;2023-12-20T00:23:38;9.50;72.20
40538;DHT22;27925;41.874;12.526;2023-12-20T00:26:04;9.50;72.00
40538;DHT22;27925;41.874;12.526;2023-12-20T00:28:30;9.40;72.50
40538;DHT22;27925;41.874;12.526;2023-12-20T00:30:55;9.40;72.40
40538;DHT22;27925;41.874;12.526;2023-12-20T00:33:21;9.40;72.40
40538;DHT22;27925;41.874;12.526;2023-12-20T00:35:47;9.40;72.60
40538;DHT22;27925;41.874;12.526;2023-12-20T00:38:12;9.40;72.40
40538;DHT22;27925;41.874;12.526;2023-12-20T00:40:38;9.30;72.50
40538;DHT22;27925;41.874;12.526;2023-12-20T00:43:04;9.20;72.60
40538;DHT22;27925;41.874;12.526;2023-12-20T00:45:29;9.10;72.80
40538;DHT22;27925;41.874;12.526;2023-12-20T00:47:55;9.10;73.00
40538;DHT22;27925;41.874;12.526;2023-12-20T00:50:21;9.10;73.20
40538;DHT22;27925;41.874;12.526;2023-12-20T00:52:47;9.10;73.20
40538;DHT22;27925;41.874;12.526;2023-12-20T00:55:13;9.00;72.80
40538;DHT22;27925;41.874;12.526;2023-12-20T00:57:39;9.00;73.20
40538;DHT22;27925;41.874;12.526;2023-12-20T01:00:05;9.00;73.10
40538;DHT22;27925;41.874;12.526;2023-12-20T01:02:31;9.00;73.50
40538;DHT22;27925;41.874;12.526;2023-12-20T01:04:57;9.00;73.30
40538;DHT22;27925;41.874;12.526;2023-12-20T01:07:23;9.00;73.10
40538;DHT22;27925;41.874;12.526;2023-12-20T01:09:48;9.00;73.30
40538;DHT22;27925;41.874;12.526;2023-12-20T01:12:14;9.00;73.40
40538;DHT22;27925;41.874;12.526;2023-12-20T01:14:40;8.90;73.70
40538;DHT22;27925;41.874;12.526;2023-12-20T01:17:06;8.90;74.20
40538;DHT22;27925;41.874;12.526;2023-12-20T01:19:31;8.80;73.80
40538;DHT22;27925;41.874;12.526;2023-12-20T01:21:57;8.90;74.10
40538;DHT22;27925;41.874;12.526;2023-12-20T01:24:23;8.90;74.10
40538;DHT22;27925;41.874;12.526;2023-12-20T01:26:48;8.90;74.10
40538;DHT22;27925;41.874;12.526;2023-12-20T01:29:14;8.90;73.90
40538;DHT22;27925;41.874;12.526;2023-12-20T01:31:41;8.90;73.90
40538;DHT22;27925;41.874;12.526;2023-12-20T01:34:07;8.90;73.80
40538;DHT22;27925;41.874;12.526;2023-12-20T01:36:32;8.90;74.10
40538;DHT22;27925;41.874;12.526;2023-12-20T01:38:58;8.90;74.20
40538;DHT22;27925;41.874;12.526;2023-12-20T01:41:24;8.90;74.20
40538;DHT22;27925;41.874;12.526;2023-12-20T01:43:49;8.90;74.70
40538;DHT22;27925;41.874;12.526;2023-12-20T01:46:16;8.90;74.20
40538;DHT22;27925;41.874;12.526;2023-12-20T01:48:42;8.80;74.20
40538;DHT22;27925;41.874;12.526;2023-12-20T01:51:08;8.70;74.10
40538;DHT22;27925;41.874;12.526;2023-12-20T01:53:34;8.60;74.40
40538;DHT22;27925;41.874;12.526;2023-12-20T01:56:00;8.50;74.80
40538;DHT22;27925;41.874;12.526;2023-12-20T01:58:26;8.40;74.90
40538;DHT22;27925;41.874;12.526;2023-12-20T02:00:53;8.40;75.00
40538;DHT22;27925;41.874;12.526;2023-12-20T02:03:20;8.40;74.70
40538;DHT22;27925;41.874;12.526;2023-12-20T02:05:47;8.30;75.10
40538;DHT22;27925;41.874;12.526;2023-12-20T02:08:13;8.30;75.00
40538;DHT22;27925;41.874;12.526;2023-12-20T02:10:39;8.30;75.30
40538;DHT22;27925;41.874;12.526;2023-12-20T02:13:06;8.30;75.40
40538;DHT22;27925;41.874;12.526;2023-12-20T02:15:32;8.20;75.20
40538;DHT22;27925;41.874;12.526;2023-12-20T02:17:57;8.30;75.40
40538;DHT22;27925;41.874;12.526;2023-12-20T02:20:23;8.40;75.40
40538;DHT22;27925;41.874;12.526;2023-12-20T02:22:49;8.40;75.40
40538;DHT22;27925;41.874;12.526;2023-12-20T02:25:14;8.50;74.90
40538;DHT22;27925;41.874;12.526;2023-12-20T02:27:40;8.40;75.30
40538;DHT22;27925;41.874;12.526;2023-12-20T02:30:07;8.40;75.10
40538;DHT22;27925;41.874;12.526;2023-12-20T02:32:33;8.50;75.30
40538;DHT22;27925;41.874;12.526;2023-12-20T02:34:59;8.50;75.20
40538;DHT22;27925;41.874;12.526;2023-12-20T02:37:25;8.50;75.10
40538;DHT22;27925;41.874;12.526;2023-12-20T02:39:50;8.40;74.90
40538;DHT22;27925;41.874;12.526;2023-12-20T02:42:16;8.40;74.80
40538;DHT22;27925;41.874;12.526;2023-12-20T02:44:42;8.40;74.70
40538;DHT22;27925;41.874;12.526;2023-12-20T02:47:07;8.40;74.70
40538;DHT22;27925;41.874;12.526;2023-12-20T02:49:33;8.40;74.40
40538;DHT22;27925;41.874;12.526;2023-12-20T02:51:59;8.30;74.80
40538;DHT22;27925;41.874;12.526;2023-12-20T02:54:24;8.30;74.50
40538;DHT22;27925;41.874;12.526;2023-12-20T02:56:50;8.30;74.60
40538;DHT22;27925;41.874;12.526;2023-12-20T02:59:16;8.30;74.70
40538;DHT22;27925;41.874;12.526;2023-12-20T03:01:43;8.30;74.30
40538;DHT22;27925;41.874;12.526;2023-12-20T03:04:09;8.30;74.20
40538;DHT22;27925;41.874;12.526;2023-12-20T03:06:35;8.30;74.00
40538;DHT22;27925;41.874;12.526;2023-12-20T03:09:01;8.30;74.30
40538;DHT22;27925;41.874;12.526;2023-12-20T03:11:27;8.30;74.20
40538;DHT22;27925;41.874;12.526;2023-12-20T03:13:53;8.30;74.20
40538;DHT22;27925;41.874;12.526;2023-12-20T03:16:19;8.30;74.70
40538;DHT22;27925;41.874;12.526;2023-12-20T03:18:45;8.30;74.60
40538;DHT22;27925;41.874;12.526;2023-12-20T03:21:10;8.30;74.80
40538;DHT22;27925;41.874;12.526;2023-12-20T03:23:36;8.30;74.90
40538;DHT22;27925;41.874;12.526;2023-12-20T03:26:03;8.30;75.30
40538;DHT22;27925;41.874;12.526;2023-12-20T03:28:32;8.20;74.50
40538;DHT22;27925;41.874;12.526;2023-12-20T03:30:57;8.10;75.00
40538;DHT22;27925;41.874;12.526;2023-12-20T03:33:23;8.00;75.70
40538;DHT22;27925;41.874;12.526;2023-12-20T03:35:49;7.90;75.70
40538;DHT22;27925;41.874;12.526;2023-12-20T03:38:14;7.80;75.60
40538;DHT22;27925;41.874;12.526;2023-12-20T03:40:40;7.80;76.00
40538;DHT22;27925;41.874;12.526;2023-12-20T03:43:06;7.70;75.70
40538;DHT22;27925;41.874;12.526;2023-12-20T03:45:31;7.80;76.20
40538;DHT22;27925;41.874;12.526;2023-12-20T03:47:57;7.80;76.30
40538;DHT22;27925;41.874;12.526;2023-12-20T03:50:23;7.90;76.10
40538;DHT22;27925;41.874;12.526;2023-12-20T03:52:49;8.00;75.60
40538;DHT22;27925;41.874;12.526;2023-12-20T03:55:15;8.00;75.30
40538;DHT22;27925;41.874;12.526;2023-12-20T03:57:41;8.00;75.10
40538;DHT22;27925;41.874;12.526;2023-12-20T04:00:10;7.90;75.30
40538;DHT22;27925;41.874;12.526;2023-12-20T04:02:40;7.80;76.00
40538;DHT22;27925;41.874;12.526;2023-12-20T04:05:07;7.80;75.10
40538;DHT22;27925;41.874;12.526;2023-12-20T04:07:33;7.80;75.20
40538;DHT22;27925;41.874;12.526;2023-12-20T04:09:59;7.90;74.90
40538;DHT22;27925;41.874;12.526;2023-12-20T22:13:18;10.60;84.80
40538;DHT22;27925;41.874;12.526;2023-12-20T22:15:44;10.60;85.40
40538;DHT22;27925;41.874;12.526;2023-12-20T22:18:10;10.60;85.50
40538;DHT22;27925;41.874;12.526;2023-12-20T22:20:36;10.60;85.60
40538;DHT22;27925;41.874;12.526;2023-12-20T22:23:05;10.60;85.90
40538;DHT22;27925;41.874;12.526;2023-12-20T22:25:31;10.60;86.60
40538;DHT22;27925;41.874;12.526;2023-12-20T22:27:56;10.50;86.50
40538;DHT22;27925;41.874;12.526;2023-12-20T22:30:22;10.50;86.70
40538;DHT22;27925;41.874;12.526;2023-12-20T22:32:48;10.50;86.90
40538;DHT22;27925;41.874;12.526;2023-12-20T22:35:13;10.40;87.10
40538;DHT22;27925;41.874;12.526;2023-12-20T22:37:39;10.40;86.80
40538;DHT22;27925;41.874;12.526;2023-12-20T22:40:07;10.40;87.00
40538;DHT22;27925;41.874;12.526;2023-12-20T22:42:35;10.40;86.90
40538;DHT22;27925;41.874;12.526;2023-12-20T22:45:00;10.40;87.00
40538;DHT22;27925;41.874;12.526;2023-12-20T22:47:26;10.40;87.30
40538;DHT22;27925;41.874;12.526;2023-12-20T22:49:52;10.30;87.80
40538;DHT22;27925;41.874;12.526;2023-12-20T22:52:20;10.30;87.40
40538;DHT22;27925;41.874;12.526;2023-12-20T22:54:46;10.30;87.80
40538;DHT22;27925;41.874;12.526;2023-12-20T22:57:12;10.10;87.80
40538;DHT22;27925;41.874;12.526;2023-12-20T22:59:38;10.10;88.10
40538;DHT22;27925;41.874;12.526;2023-12-20T23:02:04;10.10;88.40
40538;DHT22;27925;41.874;12.526;2023-12-20T23:04:29;10.10;88.20
40538;DHT22;27925;41.874;12.526;2023-12-20T23:06:55;10.10;88.10
40538;DHT22;27925;41.874;12.526;2023-12-20T23:09:21;10.00;88.40
40538;DHT22;27925;41.874;12.526;2023-12-20T23:11:46;10.10;88.10
40538;DHT22;27925;41.874;12.526;2023-12-20T23:14:12;10.10;88.10
40538;DHT22;27925;41.874;12.526;2023-12-20T23:16:38;10.10;88.00
40538;DHT22;27925;41.874;12.526;2023-12-20T23:19:04;10.10;88.40
40538;DHT22;27925;41.874;12.526;2023-12-20T23:21:29;10.10;88.10
40538;DHT22;27925;41.874;12.526;2023-12-20T23:23:55;10.10;88.10
40538;DHT22;27925;41.874;12.526;2023-12-20T23:26:21;10.20;88.30
40538;DHT22;27925;41.874;12.526;2023-12-20T23:28:46;10.20;88.10
40538;DHT22;27925;41.874;12.526;2023-12-20T23:31:21;10.20;88.30
40538;DHT22;27925;41.874;12.526;2023-12-20T23:33:48;10.20;88.10
40538;DHT22;27925;41.874;12.526;2023-12-20T23:36:13;10.30;88.20
40538;DHT22;27925;41.874;12.526;2023-12-20T23:38:39;10.20;87.90
40538;DHT22;27925;41.874;12.526;2023-12-20T23:41:05;10.20;88.30
40538;DHT22;27925;41.874;12.526;2023-12-20T23:43:30;10.20;88.30
40538;DHT22;27925;41.874;12.526;2023-12-20T23:45:56;10.10;88.20
40538;DHT22;27925;41.874;12.526;2023-12-20T23:48:22;10.10;88.30
40538;DHT22;27925;41.874;12.526;2023-12-20T23:50:48;10.10;88.50
40538;DHT22;27925;41.874;12.526;2023-12-20T23:53:16;10.10;88.60
40538;DHT22;27925;41.874;12.526;2023-12-20T23:55:42;10.10;88.30
40538;DHT22;27925;41.874;12.526;2023-12-20T23:58:07;10.10;88.60
